Time;durP1;ratioP1;P1;durP2;ratioP2;P2;SDS_P1;SDS_P2;PMS_P1;PMS_P2;Temp;Humidity;BMP_temperature;BMP_pressure;BME280_temperature;BME280_humidity;BME280_pressure;Samples;Min_cycle;Max_cycle;Signal;HPM_P1;HPM_P2
2024/03/07 00:00:17;;;;;;;37.30;16.08;;;8.30;99.90;;;;;;5086613;28;20054;-79
2024/03/07 00:02:49;;;;;;;34.45;14.13;;;8.20;99.90;;;;;;5103450;27;20044;-78
2024/03/07 00:05:19;;;;;;;33.67;14.68;;;8.20;99.90;;;;;;5082232;28;20132;-78
2024/03/07 00:07:49;;;;;;;30.90;13.52;;;8.20;99.90;;;;;;5083061;28;20044;-79
2024/03/07 00:10:17;;;;;;;29.77;13.00;;;8.20;99.90;;;;;;5089638;28;20535;-78
2024/03/07 00:12:47;;;;;;;30.90;14.20;;;8.20;99.90;;;;;;5083323;28;20040;-79
2024/03/07 00:15:17;;;;;;;27.45;12.38;;;8.30;99.90;;;;;;5082781;28;20033;-78
2024/03/07 00:17:48;;;;;;;28.05;12.70;;;8.30;99.90;;;;;;5085546;28;20048;-78
2024/03/07 00:20:19;;;;;;;28.58;13.48;;;8.30;99.90;;;;;;5084977;28;20193;-78
2024/03/07 00:22:48;;;;;;;25.25;11.27;;;8.20;99.90;;;;;;5102642;28;20044;-78
2024/03/07 00:25:19;;;;;;;22.58;11.00;;;8.30;99.90;;;;;;5083092;28;20051;-78
2024/03/07 00:27:52;;;;;;;24.00;10.47;;;8.20;99.90;;;;;;5087558;28;20036;-79
2024/03/07 00:30:21;;;;;;;27.27;11.13;;;8.20;99.90;;;;;;5089043;28;20048;-79
2024/03/07 00:32:51;;;;;;;24.75;11.32;;;8.20;99.90;;;;;;5101296;28;20043;-78
2024/03/07 00:35:20;;;;;;;23.70;11.25;;;8.20;99.90;;;;;;5089961;28;20064;-78
2024/03/07 00:37:49;;;;;;;24.33;10.38;;;8.10;99.90;;;;;;5104714;28;20036;-78
2024/03/07 00:40:17;;;;;;;27.55;11.48;;;8.20;99.90;;;;;;5090216;28;20055;-81
2024/03/07 00:42:46;;;;;;;24.52;11.30;;;8.20;99.90;;;;;;5106190;28;20044;-80
2024/03/07 00:45:14;;;;;;;24.95;10.02;;;8.10;99.90;;;;;;5104843;28;20127;-78
2024/03/07 00:47:43;;;;;;;24.17;9.98;;;8.10;99.90;;;;;;5087836;28;20063;-80
2024/03/07 00:50:13;;;;;;;21.60;9.63;;;8.00;99.90;;;;;;5091874;28;20059;-78
2024/03/07 00:52:42;;;;;;;24.15;9.80;;;8.00;99.90;;;;;;5083291;28;20062;-79
2024/03/07 00:55:10;;;;;;;22.58;9.55;;;8.00;99.90;;;;;;5090291;28;20046;-79
2024/03/07 00:57:39;;;;;;;19.50;9.00;;;8.00;99.90;;;;;;5095365;28;20048;-79
2024/03/07 01:00:13;;;;;;;21.98;9.93;;;8.10;99.90;;;;;;5083317;28;20126;-81
2024/03/07 01:02:44;;;;;;;20.35;9.63;;;8.10;99.90;;;;;;5080680;28;20033;-79
2024/03/07 01:05:14;;;;;;;24.80;9.52;;;8.10;99.90;;;;;;5079047;28;20517;-79
2024/03/07 01:07:44;;;;;;;22.15;10.05;;;8.10;99.90;;;;;;5078079;28;20052;-79
2024/03/07 01:10:13;;;;;;;23.08;9.65;;;8.20;99.90;;;;;;5095030;28;20055;-80
2024/03/07 01:12:43;;;;;;;22.33;9.45;;;8.20;99.90;;;;;;5083132;28;20483;-80
2024/03/07 01:15:12;;;;;;;22.42;10.10;;;8.20;99.90;;;;;;5088421;28;20040;-80
2024/03/07 01:17:41;;;;;;;23.83;10.55;;;8.20;99.90;;;;;;5090758;28;20457;-80
2024/03/07 01:20:11;;;;;;;21.27;9.38;;;8.20;99.90;;;;;;5085852;28;20473;-79
2024/03/07 01:22:43;;;;;;;23.27;10.07;;;8.20;99.90;;;;;;5105700;28;20054;-79
2024/03/07 01:25:13;;;;;;;20.33;8.93;;;8.20;99.90;;;;;;5086716;28;20132;-79
2024/03/07 01:27:42;;;;;;;24.25;9.27;;;8.20;99.90;;;;;;5079059;28;20071;-79
2024/03/07 01:30:13;;;;;;;22.65;10.05;;;8.20;99.90;;;;;;5089039;28;20380;-79
2024/03/07 01:32:42;;;;;;;18.98;8.98;;;8.20;99.90;;;;;;5073441;28;20582;-79
2024/03/07 01:35:13;;;;;;;20.20;9.65;;;8.20;99.90;;;;;;5089821;28;20473;-81
2024/03/07 01:37:43;;;;;;;21.73;9.50;;;8.20;99.90;;;;;;5098773;28;20036;-80
2024/03/07 01:40:14;;;;;;;26.88;10.65;;;8.20;99.90;;;;;;5093671;28;20047;-78
2024/03/07 01:42:44;;;;;;;23.15;9.30;;;8.10;99.90;;;;;;5094570;28;20402;-81
2024/03/07 01:45:15;;;;;;;26.73;11.23;;;8.10;99.90;;;;;;5096664;28;20105;-82
2024/03/07 01:47:44;;;;;;;24.77;10.30;;;8.10;99.90;;;;;;5098888;28;20478;-80
2024/03/07 01:50:13;;;;;;;27.70;10.77;;;8.00;99.90;;;;;;5095132;28;20505;-80
2024/03/07 01:52:51;;;;;;;28.40;12.02;;;8.00;99.90;;;;;;5113440;28;20082;-81
2024/03/07 01:55:20;;;;;;;30.85;11.65;;;7.90;99.90;;;;;;5101157;28;20093;-83
2024/03/07 01:57:48;;;;;;;29.52;10.80;;;7.90;99.90;;;;;;5095272;28;20471;-82
2024/03/07 02:00:22;;;;;;;21.75;9.15;;;7.90;99.90;;;;;;5095146;28;20419;-80
2024/03/07 02:02:51;;;;;;;24.42;9.82;;;7.90;99.90;;;;;;5093088;28;20041;-79
2024/03/07 02:05:20;;;;;;;28.40;10.20;;;7.90;99.90;;;;;;5102039;28;20036;-82
2024/03/07 02:07:53;;;;;;;24.05;9.77;;;8.00;99.90;;;;;;5087543;28;20495;-81
2024/03/07 02:10:26;;;;;;;20.98;9.63;;;8.00;99.90;;;;;;5094587;28;20048;-80
2024/03/07 02:12:54;;;;;;;23.27;9.23;;;8.00;99.90;;;;;;5095172;28;20052;-81
2024/03/07 02:15:23;;;;;;;21.13;8.75;;;7.90;99.90;;;;;;5093360;28;20047;-83
2024/03/07 02:17:53;;;;;;;18.63;8.27;;;7.80;99.90;;;;;;5106874;28;20529;-83
2024/03/07 02:20:23;;;;;;;20.35;8.07;;;7.70;99.90;;;;;;5097634;28;20097;-81
2024/03/07 02:22:53;;;;;;;19.30;9.43;;;7.70;99.90;;;;;;5094222;28;20076;-82
2024/03/07 02:25:23;;;;;;;19.73;8.35;;;7.80;99.90;;;;;;5073141;28;20056;-83
2024/03/07 02:27:53;;;;;;;18.13;7.82;;;7.70;99.90;;;;;;5056818;28;20041;-83
2024/03/07 02:30:22;;;;;;;18.13;8.23;;;7.70;99.90;;;;;;5078069;28;20493;-80
2024/03/07 02:32:54;;;;;;;15.25;7.10;;;7.80;99.90;;;;;;5054631;28;20115;-80
2024/03/07 02:35:24;;;;;;;15.30;6.32;;;7.70;99.90;;;;;;5056112;28;20139;-81
2024/03/07 02:37:56;;;;;;;14.88;6.63;;;7.70;99.90;;;;;;5072990;28;20579;-79
2024/03/07 02:40:26;;;;;;;16.75;7.45;;;7.70;99.90;;;;;;5055232;28;20063;-79
2024/03/07 02:42:55;;;;;;;17.48;7.90;;;7.60;99.90;;;;;;5051917;28;20617;-79
2024/03/07 02:45:24;;;;;;;16.30;7.32;;;7.60;99.90;;;;;;5072690;28;20063;-79
2024/03/07 02:47:53;;;;;;;15.68;6.95;;;7.70;99.90;;;;;;5053521;28;20132;-79
2024/03/07 02:50:28;;;;;;;14.88;7.60;;;7.60;99.90;;;;;;5055687;28;20076;-82
2024/03/07 02:52:58;;;;;;;17.38;6.80;;;7.60;99.90;;;;;;5073190;28;20048;-79
2024/03/07 02:55:28;;;;;;;16.70;7.28;;;7.70;99.90;;;;;;5073043;28;20037;-81
2024/03/07 02:57:58;;;;;;;16.48;6.93;;;7.70;99.90;;;;;;5056097;28;20595;-80
2024/03/07 03:00:29;;;;;;;17.70;7.68;;;7.70;99.90;;;;;;5056314;28;20094;-79
2024/03/07 03:03:02;;;;;;;15.52;7.40;;;7.70;99.90;;;;;;5072036;28;20109;-82
2024/03/07 03:05:32;;;;;;;16.67;7.75;;;7.70;99.90;;;;;;5036009;28;20063;-78
2024/03/07 03:08:06;;;;;;;16.40;6.57;;;7.60;99.90;;;;;;5051068;28;20044;-80
2024/03/07 03:10:38;;;;;;;16.55;6.65;;;7.60;99.90;;;;;;5056339;28;20055;-79
2024/03/07 03:13:08;;;;;;;12.65;6.05;;;7.60;99.90;;;;;;5056131;28;20143;-79
2024/03/07 03:15:40;;;;;;;14.05;5.45;;;7.50;99.90;;;;;;5074900;28;20053;-79
2024/03/07 03:18:10;;;;;;;13.20;5.60;;;7.60;99.90;;;;;;5093693;28;20044;-81
2024/03/07 03:20:43;;;;;;;15.27;6.47;;;7.60;99.90;;;;;;5093641;28;20048;-81
2024/03/07 03:23:13;;;;;;;14.30;6.83;;;7.70;99.90;;;;;;5094928;28;20135;-79
2024/03/07 03:25:49;;;;;;;14.30;6.32;;;7.70;99.90;;;;;;5077126;28;20052;-79
2024/03/07 03:28:20;;;;;;;16.02;6.68;;;7.60;99.90;;;;;;5084503;28;20127;-80
2024/03/07 03:30:51;;;;;;;11.77;5.30;;;7.60;99.90;;;;;;5090094;28;20053;-80
2024/03/07 03:33:21;;;;;;;14.68;5.93;;;7.60;99.90;;;;;;5072461;28;20056;-79
2024/03/07 03:35:52;;;;;;;14.07;5.85;;;7.60;99.90;;;;;;5072165;28;20082;-79
2024/03/07 03:38:25;;;;;;;15.73;5.90;;;7.50;99.90;;;;;;5092356;28;20078;-79
2024/03/07 03:40:55;;;;;;;12.48;5.50;;;7.50;99.90;;;;;;5075393;28;20392;-79
2024/03/07 03:43:24;;;;;;;12.07;5.57;;;7.40;99.90;;;;;;5092533;28;20055;-79
2024/03/07 03:45:54;;;;;;;12.73;5.65;;;7.40;99.90;;;;;;5092278;28;20046;-79
2024/03/07 03:48:23;;;;;;;15.65;6.07;;;7.40;99.90;;;;;;5092422;28;20113;-78
2024/03/07 03:50:55;;;;;;;11.40;5.18;;;7.50;99.90;;;;;;5074289;28;20052;-79
2024/03/07 03:53:26;;;;;;;12.32;5.90;;;7.50;99.90;;;;;;5071985;28;20063;-80
2024/03/07 03:55:57;;;;;;;10.80;5.30;;;7.50;99.90;;;;;;5040333;28;20529;-79
2024/03/07 03:58:25;;;;;;;14.80;5.10;;;7.50;99.90;;;;;;5071932;28;20060;-81
2024/03/07 04:00:58;;;;;;;12.73;5.13;;;7.60;99.90;;;;;;5111920;28;20058;-78
2024/03/07 04:03:27;;;;;;;14.05;5.82;;;7.60;99.90;;;;;;5095663;28;20477;-80
2024/03/07 04:05:59;;;;;;;14.50;5.88;;;7.50;99.90;;;;;;5089165;28;20053;-79
2024/03/07 04:08:30;;;;;;;15.52;6.30;;;7.50;99.90;;;;;;5074189;28;20036;-80
2024/03/07 04:10:59;;;;;;;14.02;5.82;;;7.50;99.90;;;;;;5072568;28;20403;-79
2024/03/07 04:13:30;;;;;;;11.65;5.40;;;7.50;99.90;;;;;;5072483;28;20098;-80
2024/03/07 04:15:59;;;;;;;13.65;5.93;;;7.50;99.90;;;;;;5102751;28;20044;-78
2024/03/07 04:18:27;;;;;;;15.73;5.57;;;7.50;99.90;;;;;;5092431;28;20048;-79
2024/03/07 04:20:59;;;;;;;14.85;5.93;;;7.50;99.90;;;;;;5092489;28;20144;-79
2024/03/07 04:23:29;;;;;;;15.80;6.30;;;7.50;99.90;;;;;;5058535;28;20052;-79
2024/03/07 04:25:58;;;;;;;16.73;7.03;;;7.40;99.90;;;;;;5081439;28;20048;-79
2024/03/07 04:28:27;;;;;;;13.70;6.78;;;7.40;99.90;;;;;;5092550;28;20477;-79
2024/03/07 04:30:56;;;;;;;17.17;6.25;;;7.50;99.90;;;;;;5109468;28;20048;-79
2024/03/07 04:33:24;;;;;;;10.50;5.70;;;7.40;99.90;;;;;;5092439;28;20101;-79
2024/03/07 04:35:56;;;;;;;12.32;5.80;;;7.40;99.90;;;;;;5093604;28;20051;-79
2024/03/07 04:38:28;;;;;;;15.30;5.63;;;7.40;99.90;;;;;;5092453;28;20056;-79
2024/03/07 04:41:00;;;;;;;10.45;4.97;;;7.40;99.90;;;;;;5109332;28;20052;-79
2024/03/07 04:43:29;;;;;;;11.45;4.88;;;7.40;99.90;;;;;;5092220;28;20047;-79
2024/03/07 04:45:58;;;;;;;9.38;4.57;;;7.40;99.90;;;;;;5092141;28;20222;-79
2024/03/07 04:48:29;;;;;;;10.43;4.50;;;7.40;99.90;;;;;;5092388;28;20475;-79
2024/03/07 04:51:06;;;;;;;6.40;3.38;;;7.30;99.90;;;;;;5100783;28;20043;-78
2024/03/07 04:53:37;;;;;;;7.05;3.60;;;7.20;99.90;;;;;;5110462;28;20073;-78
2024/03/07 04:56:09;;;;;;;7.40;3.28;;;7.20;99.90;;;;;;5092250;28;20052;-81
2024/03/07 04:58:38;;;;;;;6.30;3.85;;;7.10;99.90;;;;;;5092112;28;20052;-78
2024/03/07 05:01:08;;;;;;;7.97;3.78;;;7.20;99.90;;;;;;5073988;28;20079;-78
2024/03/07 05:03:36;;;;;;;8.43;3.83;;;7.20;99.90;;;;;;5091603;28;20101;-78
2024/03/07 05:06:05;;;;;;;7.65;3.10;;;7.20;99.90;;;;;;5083051;28;20429;-78
2024/03/07 05:08:34;;;;;;;7.28;3.67;;;7.20;99.90;;;;;;5096277;28;20048;-78
2024/03/07 05:11:04;;;;;;;6.13;3.05;;;7.20;99.90;;;;;;5096208;28;20040;-78
2024/03/07 05:13:34;;;;;;;6.75;3.65;;;7.10;99.90;;;;;;5097415;28;20040;-78
2024/03/07 05:16:06;;;;;;;8.00;4.25;;;7.00;99.90;;;;;;5101226;28;20063;-78
2024/03/07 05:18:35;;;;;;;7.57;3.60;;;7.00;99.90;;;;;;5088810;28;20526;-79
2024/03/07 05:21:34;;;;;;;9.60;4.13;;;6.90;99.90;;;;;;5096789;28;20059;-78
2024/03/07 05:23:52;;;;;;;12.32;5.30;;;6.80;99.90;;;;;;5098714;28;20048;-78
2024/03/07 05:26:21;;;;;;;8.88;3.72;;;6.80;99.90;;;;;;5097572;28;20040;-78
2024/03/07 05:28:53;;;;;;;10.20;4.20;;;6.80;99.90;;;;;;5085446;28;20048;-78
2024/03/07 05:31:24;;;;;;;7.63;3.70;;;6.90;99.90;;;;;;5096808;28;20068;-78
2024/03/07 05:33:55;;;;;;;7.22;3.40;;;6.90;99.90;;;;;;5091256;28;20047;-78
2024/03/07 05:36:26;;;;;;;7.57;3.75;;;6.90;99.90;;;;;;5096920;28;20047;-78
2024/03/07 05:38:54;;;;;;;10.30;4.50;;;6.90;99.90;;;;;;5095894;28;20044;-78
2024/03/07 05:41:23;;;;;;;11.45;4.60;;;6.90;99.90;;;;;;5095176;28;20076;-78
2024/03/07 05:43:54;;;;;;;11.73;4.53;;;6.90;99.90;;;;;;5096799;28;20047;-79
2024/03/07 05:46:22;;;;;;;9.00;4.15;;;6.90;99.90;;;;;;5089033;28;20403;-78
2024/03/07 05:48:55;;;;;;;12.32;4.82;;;6.90;99.90;;;;;;5092975;28;20051;-78
2024/03/07 05:51:24;;;;;;;;;;;6.90;99.90;;;;;;5097915;28;20079;-78
2024/03/07 05:53:53;;;;;;;12.02;5.13;;;6.70;99.90;;;;;;5105463;28;19928;-79
2024/03/07 05:56:22;;;;;;;10.82;4.60;;;6.70;99.90;;;;;;5100795;28;20446;-77
2024/03/07 05:58:54;;;;;;;9.90;5.20;;;6.80;99.90;;;;;;5097843;28;20078;-78
2024/03/07 06:01:29;;;;;;;11.77;5.28;;;6.80;99.90;;;;;;5088507;28;20045;-78
2024/03/07 06:04:00;;;;;;;13.13;6.18;;;6.80;99.90;;;;;;5101797;28;20051;-79
2024/03/07 06:06:41;;;;;;;9.20;5.03;;;6.90;99.90;;;;;;5097134;28;20159;-78
2024/03/07 06:09:13;;;;;;;11.38;4.88;;;6.80;99.90;;;;;;5095800;28;20558;-78
2024/03/07 06:16:11;;;;;;;11.55;4.30;;;6.90;99.90;;;;;;5110282;28;20061;-79
2024/03/07 06:22:29;;;;;;;7.53;3.85;;;7.00;99.90;;;;;;5106451;28;20078;-80
2024/03/07 06:25:06;;;;;;;9.68;4.65;;;7.10;99.90;;;;;;5099325;28;20044;-80
2024/03/07 06:27:38;;;;;;;11.65;5.07;;;7.10;99.90;;;;;;5096920;28;20044;-79
2024/03/07 06:30:16;;;;;;;11.57;5.22;;;7.00;99.90;;;;;;5098709;28;20052;-80
2024/03/07 06:32:50;;;;;;;7.03;3.78;;;7.00;99.90;;;;;;5069338;28;20067;-80
2024/03/07 06:35:23;;;;;;;10.50;5.13;;;7.00;99.90;;;;;;5098788;28;20048;-80
2024/03/07 06:37:56;;;;;;;10.07;3.90;;;6.90;99.90;;;;;;5069102;28;20048;-79
2024/03/07 06:40:29;;;;;;;9.60;4.88;;;7.00;99.90;;;;;;5097769;28;20495;-81
2024/03/07 06:43:03;;;;;;;10.55;4.95;;;7.10;99.90;;;;;;5096523;28;20044;-80
2024/03/07 06:45:37;;;;;;;10.77;5.60;;;7.00;99.90;;;;;;5114319;28;20402;-80
2024/03/07 06:52:32;;;;;;;9.93;4.30;;;7.20;99.90;;;;;;5101158;28;20039;-79
2024/03/07 06:55:00;;;;;;;11.02;4.60;;;7.10;99.90;;;;;;5094490;28;20445;-79
2024/03/07 06:57:31;;;;;;;10.60;5.05;;;7.20;99.90;;;;;;5095453;28;20093;-81
2024/03/07 07:00:14;;;;;;;11.80;5.07;;;7.10;99.90;;;;;;5077283;28;20039;-82
2024/03/07 07:02:45;;;;;;;9.00;4.28;;;7.10;99.90;;;;;;5094333;28;20048;-81
2024/03/07 07:05:15;;;;;;;11.68;4.75;;;7.20;99.90;;;;;;5094015;28;20052;-82
2024/03/07 07:07:46;;;;;;;8.45;4.05;;;7.10;99.90;;;;;;5094058;28;20399;-81
2024/03/07 07:10:17;;;;;;;7.85;4.07;;;7.20;99.90;;;;;;5110953;28;20055;-81
2024/03/07 07:12:47;;;;;;;10.60;4.90;;;7.20;99.90;;;;;;5095465;28;20528;-81
2024/03/07 07:15:18;;;;;;;9.15;4.05;;;7.20;99.90;;;;;;5093843;28;20043;-81
2024/03/07 07:17:46;;;;;;;12.68;5.13;;;7.20;99.90;;;;;;5093845;28;20040;-82
2024/03/07 07:20:15;;;;;;;12.13;5.72;;;7.20;99.90;;;;;;5072688;28;20057;-80
2024/03/07 07:22:47;;;;;;;11.85;5.38;;;7.20;99.90;;;;;;5072862;28;20143;-81
2024/03/07 07:25:16;;;;;;;11.80;5.20;;;7.20;99.90;;;;;;5072071;28;20048;-82
2024/03/07 07:27:52;;;;;;;6.90;3.72;;;7.30;99.90;;;;;;5072312;28;20439;-81
2024/03/07 07:30:23;;;;;;;6.50;3.38;;;7.30;99.90;;;;;;5055871;28;20129;-82
2024/03/07 07:32:53;;;;;;;9.50;4.13;;;7.30;99.90;;;;;;5072389;28;20049;-83
2024/03/07 07:35:22;;;;;;;11.27;3.85;;;7.20;99.90;;;;;;5072448;28;20122;-82
2024/03/07 07:37:55;;;;;;;6.05;3.53;;;7.20;99.90;;;;;;5072283;28;20545;-82
2024/03/07 07:40:27;;;;;;;7.85;3.05;;;7.30;99.90;;;;;;5072215;28;20102;-81
2024/03/07 07:42:56;;;;;;;6.60;3.15;;;7.30;99.90;;;;;;5072306;28;20094;-82
2024/03/07 07:45:25;;;;;;;8.10;3.50;;;7.20;99.90;;;;;;5055129;28;20404;-84
2024/03/07 07:47:54;;;;;;;6.15;3.60;;;7.30;99.90;;;;;;5055122;28;20064;-82
2024/03/07 07:50:25;;;;;;;6.00;3.00;;;7.30;99.90;;;;;;5073348;28;20405;-85
2024/03/07 07:52:57;;;;;;;7.25;3.42;;;7.30;99.90;;;;;;5092921;28;20046;-85
2024/03/07 07:55:28;;;;;;;6.53;3.00;;;7.30;99.90;;;;;;5084879;28;20067;-84
2024/03/07 07:57:58;;;;;;;7.50;3.53;;;7.40;99.90;;;;;;5092776;28;20051;-84
2024/03/07 08:00:30;;;;;;;6.68;3.60;;;7.40;99.90;;;;;;5088748;28;20049;-82
2024/03/07 08:03:01;;;;;;;7.45;3.35;;;7.40;99.90;;;;;;5088179;28;20048;-82
2024/03/07 08:05:31;;;;;;;7.10;3.95;;;7.40;99.90;;;;;;5104446;28;20102;-82
2024/03/07 08:08:05;;;;;;;7.80;3.45;;;7.40;99.90;;;;;;5090622;28;20394;-84
2024/03/07 08:10:35;;;;;;;6.78;3.38;;;7.30;99.90;;;;;;5090353;28;20047;-84
2024/03/07 08:13:07;;;;;;;7.97;3.90;;;7.40;99.90;;;;;;5092762;28;20048;-84
2024/03/07 08:15:39;;;;;;;6.93;3.67;;;7.40;99.90;;;;;;5089927;28;20051;-81
2024/03/07 08:18:10;;;;;;;7.35;3.40;;;7.40;99.90;;;;;;5087004;28;20044;-83
2024/03/07 08:20:43;;;;;;;6.40;3.30;;;7.40;99.90;;;;;;5086438;28;20530;-83
2024/03/07 08:23:15;;;;;;;7.03;3.22;;;7.40;99.90;;;;;;5099357;28;20111;-80
2024/03/07 08:25:44;;;;;;;6.28;3.55;;;7.40;99.90;;;;;;5087761;28;20036;-83
2024/03/07 08:28:14;;;;;;;6.03;3.30;;;7.40;99.90;;;;;;5088785;28;20414;-83
2024/03/07 08:30:47;;;;;;;6.22;3.72;;;7.40;99.90;;;;;;5091390;28;20044;-83
2024/03/07 08:33:16;;;;;;;6.90;3.63;;;7.40;99.90;;;;;;5085911;28;20109;-83
2024/03/07 08:35:45;;;;;;;7.07;3.50;;;7.40;99.90;;;;;;5070552;28;20051;-86
2024/03/07 08:38:16;;;;;;;6.80;4.05;;;7.40;99.90;;;;;;5106941;27;20043;-84
2024/03/07 08:40:44;;;;;;;7.13;3.90;;;7.40;99.90;;;;;;5086796;28;20043;-85
2024/03/07 08:43:14;;;;;;;6.68;3.78;;;7.50;99.90;;;;;;5087809;28;20068;-85
2024/03/07 08:45:45;;;;;;;7.57;4.18;;;7.50;99.90;;;;;;5088001;28;20476;-84
2024/03/07 08:48:14;;;;;;;7.07;4.10;;;7.40;99.90;;;;;;5100312;28;20040;-85
2024/03/07 08:50:45;;;;;;;8.30;4.22;;;7.40;99.90;;;;;;5102135;28;20048;-81
2024/03/07 08:53:19;;;;;;;7.93;3.83;;;7.50;99.90;;;;;;5087535;28;20584;-85
2024/03/07 08:55:48;;;;;;;8.70;4.22;;;7.60;99.90;;;;;;5089079;28;20064;-85
2024/03/07 08:58:18;;;;;;;6.85;4.10;;;7.60;99.90;;;;;;5087078;28;20051;-83
2024/03/07 09:00:48;;;;;;;7.60;3.85;;;7.70;99.90;;;;;;5085784;28;20041;-85
2024/03/07 09:03:18;;;;;;;7.65;3.88;;;7.70;99.90;;;;;;5083471;28;20052;-84
2024/03/07 09:05:48;;;;;;;8.25;4.60;;;7.70;99.90;;;;;;5101506;28;20560;-84
2024/03/07 09:08:18;;;;;;;6.97;3.80;;;7.80;99.90;;;;;;5082758;28;20047;-83
2024/03/07 09:10:46;;;;;;;6.70;3.97;;;7.70;99.90;;;;;;5092575;28;20036;-85
2024/03/07 09:13:17;;;;;;;7.47;4.43;;;7.80;99.90;;;;;;5087075;28;20044;-84
2024/03/07 09:15:45;;;;;;;6.40;4.25;;;7.80;99.90;;;;;;5080484;28;20135;-84
2024/03/07 09:18:14;;;;;;;7.97;4.18;;;7.90;99.90;;;;;;5083000;28;20040;-85
2024/03/07 09:20:43;;;;;;;7.68;4.10;;;7.80;99.90;;;;;;5096967;28;20052;-85
2024/03/07 09:23:11;;;;;;;7.25;4.50;;;7.90;99.90;;;;;;5101658;28;20048;-85
2024/03/07 09:25:42;;;;;;;9.15;3.88;;;8.00;99.90;;;;;;5100258;28;20316;-84
2024/03/07 09:28:11;;;;;;;10.52;4.95;;;8.00;99.90;;;;;;5084293;28;20185;-85
2024/03/07 09:30:40;;;;;;;6.82;4.05;;;8.10;99.90;;;;;;5084576;28;20051;-83
2024/03/07 09:33:11;;;;;;;8.50;4.53;;;8.10;99.90;;;;;;5083192;28;20535;-87
2024/03/07 09:35:40;;;;;;;7.93;4.60;;;8.00;99.90;;;;;;5082702;28;20540;-87
2024/03/07 09:38:09;;;;;;;7.95;4.07;;;8.10;99.90;;;;;;5094565;28;20044;-87
2024/03/07 09:40:38;;;;;;;6.65;3.67;;;8.10;99.90;;;;;;5086196;28;20452;-85
2024/03/07 09:43:10;;;;;;;7.20;3.97;;;8.10;99.90;;;;;;5085768;28;20044;-83
2024/03/07 09:45:42;;;;;;;6.43;3.53;;;8.20;99.90;;;;;;5088223;28;20059;-85
2024/03/07 09:48:15;;;;;;;7.00;3.58;;;8.20;99.90;;;;;;5092340;28;20052;-86
2024/03/07 09:50:47;;;;;;;5.78;3.20;;;8.30;99.90;;;;;;5081409;28;20039;-86
2024/03/07 09:53:18;;;;;;;7.78;4.03;;;8.20;99.90;;;;;;5101111;28;20495;-86
2024/03/07 09:55:47;;;;;;;5.53;3.17;;;8.20;99.90;;;;;;5101754;28;20048;-85
2024/03/07 09:58:20;;;;;;;6.20;3.30;;;8.30;99.90;;;;;;5085686;28;20072;-86
2024/03/07 10:00:51;;;;;;;6.57;3.95;;;8.30;99.90;;;;;;5089647;28;20411;-86
2024/03/07 10:03:23;;;;;;;6.32;3.60;;;8.20;99.90;;;;;;5085821;28;20464;-86
2024/03/07 10:05:53;;;;;;;5.28;3.08;;;8.40;99.90;;;;;;5088106;28;20047;-84
2024/03/07 10:08:23;;;;;;;5.72;3.10;;;8.30;99.90;;;;;;5105690;27;20499;-87
2024/03/07 10:10:55;;;;;;;6.63;3.28;;;8.30;99.90;;;;;;5087709;28;20117;-84
2024/03/07 10:13:25;;;;;;;5.70;3.63;;;8.20;99.90;;;;;;5101763;27;20143;-86
2024/03/07 10:15:59;;;;;;;6.30;3.50;;;8.30;99.90;;;;;;5084839;28;20051;-85
2024/03/07 10:18:29;;;;;;;6.32;3.38;;;8.30;99.90;;;;;;5102164;28;20587;-87
2024/03/07 10:20:58;;;;;;;5.32;3.25;;;8.30;99.90;;;;;;5088547;28;20052;-85
2024/03/07 10:23:27;;;;;;;6.05;3.28;;;8.30;99.90;;;;;;5081226;28;20063;-85
2024/03/07 10:25:56;;;;;;;5.60;3.78;;;8.30;99.90;;;;;;5099567;27;20565;-83
2024/03/07 10:28:27;;;;;;;9.60;3.83;;;8.30;99.90;;;;;;5097423;27;20502;-85
2024/03/07 10:30:56;;;;;;;9.15;3.60;;;8.30;99.90;;;;;;5101830;28;20044;-86
2024/03/07 10:33:28;;;;;;;6.38;3.83;;;8.30;99.90;;;;;;5089431;28;20048;-86
2024/03/07 10:35:57;;;;;;;6.80;3.75;;;8.20;99.90;;;;;;5086544;28;20067;-85
2024/03/07 10:38:25;;;;;;;8.63;3.47;;;8.30;99.90;;;;;;5099935;28;20475;-86
2024/03/07 10:40:56;;;;;;;6.72;3.70;;;8.30;99.90;;;;;;5089627;28;20037;-87
2024/03/07 10:43:30;;;;;;;6.38;3.53;;;8.30;99.90;;;;;;5090428;28;20067;-87
2024/03/07 10:46:06;;;;;;;6.55;3.67;;;8.30;99.90;;;;;;5087569;28;20502;-86
2024/03/07 10:48:40;;;;;;;6.20;3.28;;;8.30;99.90;;;;;;5091877;28;20048;-86
2024/03/07 10:51:20;;;;;;;5.72;3.80;;;8.40;99.90;;;;;;5099876;28;20141;-86
2024/03/07 10:54:00;;;;;;;7.82;3.97;;;8.40;99.90;;;;;;5078343;28;20040;-86
2024/03/07 10:56:46;;;;;;;6.93;3.63;;;8.40;99.90;;;;;;5080123;28;20530;-87
2024/03/07 10:59:19;;;;;;;7.60;4.00;;;8.50;99.90;;;;;;5098612;28;20048;-86
2024/03/07 11:01:50;;;;;;;;;;;8.50;99.90;;;;;;5086955;28;20056;-84
2024/03/07 11:04:24;;;;;;;5.80;3.92;;;8.40;99.90;;;;;;5079626;28;19928;-87
2024/03/07 11:06:53;;;;;;;6.47;3.55;;;8.40;99.90;;;;;;5083719;28;20141;-85
2024/03/07 11:09:24;;;;;;;7.13;3.92;;;8.30;99.90;;;;;;5086009;28;20097;-87
2024/03/07 11:11:53;;;;;;;7.80;4.32;;;8.30;99.90;;;;;;5086919;28;20052;-83
2024/03/07 11:14:24;;;;;;;7.85;4.20;;;8.30;99.90;;;;;;5087841;28;20392;-83
2024/03/07 11:16:54;;;;;;;7.28;3.97;;;8.30;99.90;;;;;;5101453;28;20382;-86
2024/03/07 11:19:28;;;;;;;8.85;4.65;;;8.30;99.90;;;;;;5081188;28;20101;-85
2024/03/07 11:21:57;;;;;;;9.63;4.40;;;8.30;99.90;;;;;;5086440;28;20051;-86
2024/03/07 11:24:28;;;;;;;7.40;4.10;;;8.30;99.90;;;;;;5085056;28;20043;-86
2024/03/07 11:26:57;;;;;;;7.57;3.97;;;8.30;99.90;;;;;;5082772;28;20048;-86
2024/03/07 11:29:47;;;;;;;7.18;4.50;;;8.30;99.90;;;;;;5080153;28;20055;-86
2024/03/07 11:32:17;;;;;;;8.45;3.85;;;8.30;99.90;;;;;;5100127;28;20086;-86
2024/03/07 11:34:47;;;;;;;10.35;4.85;;;8.40;99.90;;;;;;5085800;28;20052;-85
2024/03/07 11:37:22;;;;;;;7.78;3.72;;;8.40;99.90;;;;;;5101498;28;20499;-84
2024/03/07 11:39:53;;;;;;;7.35;4.38;;;8.40;99.90;;;;;;5101046;28;20041;-86
2024/03/07 11:42:26;;;;;;;7.32;4.45;;;8.40;99.90;;;;;;5085659;28;20090;-87
2024/03/07 11:44:57;;;;;;;7.97;4.47;;;8.50;99.90;;;;;;5085103;28;20044;-86
2024/03/07 11:47:28;;;;;;;6.90;3.70;;;8.40;99.90;;;;;;5100074;28;20044;-86
2024/03/07 11:49:58;;;;;;;7.18;3.85;;;8.40;99.90;;;;;;5086666;28;20054;-85
2024/03/07 11:52:28;;;;;;;8.15;4.40;;;8.50;99.90;;;;;;5081391;28;20391;-85
2024/03/07 11:55:03;;;;;;;8.75;4.25;;;8.40;99.90;;;;;;5084920;28;20084;-84
2024/03/07 11:57:33;;;;;;;7.97;4.15;;;8.40;99.90;;;;;;5081194;28;20540;-84
2024/03/07 12:00:08;;;;;;;7.13;4.45;;;8.30;99.90;;;;;;5082309;28;20044;-86
2024/03/07 12:02:40;;;;;;;9.35;4.70;;;8.30;99.90;;;;;;5086588;28;20370;-83
2024/03/07 12:05:10;;;;;;;9.85;5.22;;;8.30;99.90;;;;;;5096943;28;20075;-87
2024/03/07 12:07:38;;;;;;;8.48;4.20;;;8.30;99.90;;;;;;5084860;28;20043;-82
2024/03/07 12:10:08;;;;;;;7.45;4.25;;;8.20;99.90;;;;;;5086432;28;20140;-85
2024/03/07 12:12:38;;;;;;;9.02;4.57;;;8.20;99.90;;;;;;5081920;28;20050;-86
2024/03/07 12:15:19;;;;;;;8.60;4.55;;;8.20;99.90;;;;;;5083654;28;20389;-87
2024/03/07 12:17:49;;;;;;;9.75;4.43;;;8.20;99.90;;;;;;5084155;28;20071;-87
2024/03/07 12:20:30;;;;;;;9.07;4.90;;;8.20;99.90;;;;;;5080674;28;20041;-87
2024/03/07 12:23:02;;;;;;;9.63;5.07;;;8.20;99.90;;;;;;5083040;28;20048;-88
2024/03/07 12:25:32;;;;;;;9.52;4.88;;;8.30;99.90;;;;;;5085104;28;20059;-85
2024/03/07 12:28:06;;;;;;;7.68;4.57;;;8.30;99.90;;;;;;5088773;28;20080;-86
2024/03/07 12:30:37;;;;;;;8.63;4.55;;;8.30;99.90;;;;;;5078880;28;20044;-87
2024/03/07 12:33:07;;;;;;;9.82;5.43;;;8.30;99.90;;;;;;5078128;28;20122;-86
2024/03/07 12:35:36;;;;;;;10.32;5.20;;;8.30;99.90;;;;;;5100955;28;20458;-85
2024/03/07 12:38:05;;;;;;;16.30;6.00;;;8.20;99.90;;;;;;5102836;28;20059;-86
2024/03/07 12:40:36;;;;;;;9.00;4.57;;;8.20;99.90;;;;;;5087949;28;20592;-84
2024/03/07 12:43:14;;;;;;;11.83;5.83;;;8.20;99.90;;;;;;5082471;28;20131;-85
2024/03/07 12:45:46;;;;;;;9.30;4.80;;;8.20;99.90;;;;;;5085886;28;20059;-85
2024/03/07 12:48:16;;;;;;;9.13;5.00;;;8.20;99.90;;;;;;5100712;27;20053;-85
2024/03/07 12:50:50;;;;;;;12.02;5.63;;;8.20;99.90;;;;;;5088205;28;20050;-86
2024/03/07 12:53:19;;;;;;;10.57;5.53;;;8.20;99.90;;;;;;5098603;28;20039;-86
2024/03/07 12:55:47;;;;;;;10.00;5.00;;;8.20;99.90;;;;;;5081790;28;20089;-86
2024/03/07 12:58:16;;;;;;;10.05;5.75;;;8.20;99.90;;;;;;5083888;28;20052;-85
2024/03/07 13:00:47;;;;;;;9.13;5.13;;;8.20;99.90;;;;;;5083384;28;20051;-84
2024/03/07 13:03:16;;;;;;;8.35;4.53;;;8.20;99.90;;;;;;5082282;28;20360;-85
2024/03/07 13:05:45;;;;;;;9.98;4.78;;;8.20;99.90;;;;;;5083144;28;20143;-87
2024/03/07 13:08:14;;;;;;;9.55;4.82;;;8.20;99.90;;;;;;5084073;28;20131;-88
2024/03/07 13:10:44;;;;;;;9.30;4.72;;;8.20;99.90;;;;;;5081769;28;20055;-86
2024/03/07 13:13:16;;;;;;;10.82;5.03;;;8.20;99.90;;;;;;5097765;28;20410;-83
2024/03/07 13:15:47;;;;;;;10.48;4.85;;;8.20;99.90;;;;;;5086418;28;20076;-85
2024/03/07 13:18:16;;;;;;;9.57;4.88;;;8.20;99.90;;;;;;5079265;28;20067;-82
2024/03/07 13:20:45;;;;;;;11.20;5.05;;;8.10;99.90;;;;;;5081390;28;20055;-85